PWSweather.com
Personal Weather Stations
Station Observations
LAKENACI1
Oak Shores Lake Nacimiento, Bradley, CA 93426

Oak Shores Lake NacimientoBradley, CA 93426

Lat: 35.749704, Lon: -120.988075

Elevation: 811

Station Type: Rain wise MK-III

https://www.rainwise.net/weather/JMConstructionOS

Latest ConditionsUpdated 5:30:00 AM PST Friday, Jan 19, 2018
Currently Today's Max Today's Min Today's Average
Temperature 48.7°F9.3°C 54.8°F12.7°C 48.7°F9.3°C 51.1°F10.6°C
Dew Point 45.3°F7.4°C 50.5°F10.3°C 45.3°F7.4°C 48.2°F9.0°C
Winds 1.0 mph WNW1.6 kmh WNW 3.1 mph E5.0 kmh E - 0.8 mph 1.3 kmh
Wind Gusts 1.6 mph2.6 kmh 5.1 mph8.2 kmh - -
Humidity 88% 93% 83% 90%
Pressure 29.19 in988.5 mb 29.20 in988.8 mb 29.18 in988.1 mb -
Hour Temp Dew Point Humidity Winds Wind Gusts Pressure Precip Precip Rate Daily Precip Total
05:30 AM 48.7°F9.3°C 45.3°F7.4°C 88% 1.0 mph WNW1.6 kmh WNW 1.6 mph2.6 kmh 29.19 in988.5 mb 0.00 in0.0 mm 0.00 in0.0 mm 0.00 in0.0 mm
05:25 AM 48.7°F9.3°C 45.3°F7.4°C 88% 0.1 mph WNW0.2 kmh WNW 0.5 mph0.8 kmh 29.19 in988.5 mb 0.00 in0.0 mm 0.00 in0.0 mm 0.00 in0.0 mm
05:20 AM 48.7°F9.3°C 45.6°F7.6°C 89% Calm Calm -- 29.19 in988.5 mb 0.00 in0.0 mm 0.00 in0.0 mm 0.00 in0.0 mm
05:15 AM 48.7°F9.3°C 45.6°F7.6°C 89% Calm Calm -- 29.19 in988.5 mb 0.00 in0.0 mm 0.00 in0.0 mm 0.00 in0.0 mm
05:10 AM 48.9°F9.4°C 45.5°F7.5°C 88% Calm Calm -- 29.20 in988.8 mb 0.00 in0.0 mm 0.00 in0.0 mm 0.00 in0.0 mm
05:05 AM 49.0°F9.4°C 45.9°F7.7°C 89% 0.9 mph WNW1.4 kmh WNW 2.3 mph3.7 kmh 29.20 in988.8 mb 0.00 in0.0 mm 0.00 in0.0 mm 0.00 in0.0 mm
05:00 AM 48.8°F9.3°C 45.7°F7.6°C 89% 0.5 mph WNW0.8 kmh WNW 1.0 mph1.6 kmh 29.20 in988.8 mb 0.00 in0.0 mm 0.00 in0.0 mm 0.00 in0.0 mm
04:55 AM 48.8°F9.3°C 45.4°F7.4°C 88% Calm Calm -- 29.19 in988.5 mb 0.00 in0.0 mm 0.00 in0.0 mm 0.00 in0.0 mm
04:50 AM 49.0°F9.4°C 45.6°F7.6°C 88% Calm Calm -- 29.19 in988.5 mb 0.00 in0.0 mm 0.00 in0.0 mm 0.00 in0.0 mm
04:45 AM 49.2°F9.6°C 45.8°F7.7°C 88% 0.8 mph NNW1.3 kmh NNW 1.4 mph2.3 kmh 29.19 in988.5 mb 0.00 in0.0 mm 0.00 in0.0 mm 0.00 in0.0 mm
04:40 AM 49.3°F9.6°C 45.9°F7.7°C 88% 0.8 mph W1.3 kmh W 1.3 mph2.1 kmh 29.19 in988.5 mb 0.00 in0.0 mm 0.00 in0.0 mm 0.00 in0.0 mm
04:35 AM 49.5°F9.7°C 45.8°F7.7°C 87% 2.6 mph W4.2 kmh W 3.3 mph5.3 kmh 29.19 in988.5 mb 0.00 in0.0 mm 0.00 in0.0 mm 0.00 in0.0 mm
04:30 AM 49.5°F9.7°C 46.1°F7.8°C 88% 0.2 mph W0.3 kmh W 0.5 mph0.8 kmh 29.19 in988.5 mb 0.00 in0.0 mm 0.00 in0.0 mm 0.00 in0.0 mm
04:25 AM 49.6°F9.8°C 45.9°F7.7°C 87% Calm Calm -- 29.19 in988.5 mb 0.00 in0.0 mm 0.00 in0.0 mm 0.00 in0.0 mm
04:20 AM 49.7°F9.8°C 46.3°F7.9°C 88% 0.2 mph W0.3 kmh W 0.4 mph0.6 kmh 29.20 in988.8 mb 0.00 in0.0 mm 0.00 in0.0 mm 0.00 in0.0 mm
04:15 AM 49.7°F9.8°C 46.0°F7.8°C 87% 1.6 mph W2.6 kmh W 2.6 mph4.2 kmh 29.20 in988.8 mb 0.00 in0.0 mm 0.00 in0.0 mm 0.00 in0.0 mm
04:10 AM 49.7°F9.8°C 46.6°F8.1°C 89% 0.5 mph SW0.8 kmh SW 0.7 mph1.1 kmh 29.20 in988.8 mb 0.00 in0.0 mm 0.00 in0.0 mm 0.00 in0.0 mm
04:05 AM 49.8°F9.9°C 46.7°F8.2°C 89% Calm Calm 0.6 mph1.0 kmh 29.20 in988.8 mb 0.00 in0.0 mm 0.00 in0.0 mm 0.00 in0.0 mm
04:00 AM 50.0°F10.0°C 46.9°F8.3°C 89% 0.2 mph WSW0.3 kmh WSW 0.7 mph1.1 kmh 29.20 in988.8 mb 0.00 in0.0 mm 0.00 in0.0 mm 0.00 in0.0 mm
03:55 AM 50.0°F10.0°C 47.2°F8.4°C 90% 3.1 mph W5.0 kmh W 5.1 mph8.2 kmh 29.20 in988.8 mb 0.00 in0.0 mm 0.00 in0.0 mm 0.00 in0.0 mm
03:50 AM 50.0°F10.0°C 47.5°F8.6°C 91% 1.8 mph WSW2.9 kmh WSW 3.6 mph5.8 kmh 29.20 in988.8 mb 0.00 in0.0 mm 0.00 in0.0 mm 0.00 in0.0 mm
03:45 AM 50.0°F10.0°C 47.2°F8.4°C 90% 0.1 mph WNW0.2 kmh WNW 0.9 mph1.4 kmh 29.20 in988.8 mb 0.00 in0.0 mm 0.00 in0.0 mm 0.00 in0.0 mm
03:40 AM 50.0°F10.0°C 47.8°F8.8°C 92% 1.2 mph WNW1.9 kmh WNW 2.2 mph3.5 kmh 29.19 in988.5 mb 0.00 in0.0 mm 0.00 in0.0 mm 0.00 in0.0 mm
03:35 AM 50.0°F10.0°C 47.8°F8.8°C 92% 0.5 mph ESE0.8 kmh ESE 1.0 mph1.6 kmh 29.19 in988.5 mb 0.00 in0.0 mm 0.00 in0.0 mm 0.00 in0.0 mm
03:30 AM 50.1°F10.1°C 47.9°F8.8°C 92% 1.1 mph NNE1.8 kmh NNE 1.9 mph3.1 kmh 29.19 in988.5 mb 0.00 in0.0 mm 0.00 in0.0 mm 0.00 in0.0 mm
03:25 AM 50.2°F10.1°C 48.3°F9.1°C 93% 0.7 mph NE1.1 kmh NE 1.8 mph2.9 kmh 29.19 in988.5 mb 0.00 in0.0 mm 0.00 in0.0 mm 0.00 in0.0 mm
03:20 AM 50.2°F10.1°C 48.3°F9.1°C 93% 1.1 mph SSE1.8 kmh SSE 2.3 mph3.7 kmh 29.19 in988.5 mb 0.00 in0.0 mm 0.00 in0.0 mm 0.00 in0.0 mm
03:15 AM 50.2°F10.1°C 48.0°F8.9°C 92% 0.4 mph S0.6 kmh S 1.2 mph1.9 kmh 29.19 in988.5 mb 0.00 in0.0 mm 0.00 in0.0 mm 0.00 in0.0 mm
03:10 AM 50.4°F10.2°C 48.2°F9.0°C 92% 0.7 mph WNW1.1 kmh WNW 1.7 mph2.7 kmh 29.19 in988.5 mb 0.00 in0.0 mm 0.00 in0.0 mm 0.00 in0.0 mm
03:05 AM 50.6°F10.3°C 48.4°F9.1°C 92% 0.8 mph NNW1.3 kmh NNW 1.5 mph2.4 kmh 29.19 in988.5 mb 0.00 in0.0 mm 0.00 in0.0 mm 0.00 in0.0 mm
03:00 AM 50.6°F10.3°C 48.7°F9.3°C 93% 0.5 mph NE0.8 kmh NE 1.3 mph2.1 kmh 29.19 in988.5 mb 0.00 in0.0 mm 0.00 in0.0 mm 0.00 in0.0 mm
02:55 AM 50.7°F10.4°C 48.8°F9.3°C 93% 1.5 mph N2.4 kmh N 3.2 mph5.1 kmh 29.19 in988.5 mb 0.00 in0.0 mm 0.00 in0.0 mm 0.00 in0.0 mm
02:50 AM 50.8°F10.4°C 48.6°F9.2°C 92% 2.7 mph NNW4.3 kmh NNW 4.4 mph7.1 kmh 29.19 in988.5 mb 0.00 in0.0 mm 0.00 in0.0 mm 0.00 in0.0 mm
02:45 AM 50.8°F10.4°C 48.8°F9.3°C 93% 2.5 mph WNW4.0 kmh WNW 3.7 mph6.0 kmh 29.19 in988.5 mb 0.00 in0.0 mm 0.00 in0.0 mm 0.00 in0.0 mm
02:40 AM 50.8°F10.4°C 48.8°F9.3°C 93% 0.4 mph N0.6 kmh N 1.4 mph2.3 kmh 29.19 in988.5 mb 0.00 in0.0 mm 0.00 in0.0 mm 0.00 in0.0 mm
02:35 AM 50.8°F10.4°C 48.3°F9.1°C 91% Calm Calm -- 29.19 in988.5 mb 0.00 in0.0 mm 0.00 in0.0 mm 0.00 in0.0 mm
02:30 AM 50.8°F10.4°C 48.3°F9.1°C 91% Calm Calm -- 29.19 in988.5 mb 0.00 in0.0 mm 0.00 in0.0 mm 0.00 in0.0 mm
02:25 AM 50.8°F10.4°C 48.6°F9.2°C 92% 0.1 mph SSE0.2 kmh SSE 0.3 mph0.5 kmh 29.19 in988.5 mb 0.00 in0.0 mm 0.00 in0.0 mm 0.00 in0.0 mm
02:20 AM 51.0°F10.6°C 48.5°F9.2°C 91% 0.5 mph SSE0.8 kmh SSE 1.1 mph1.8 kmh 29.18 in988.1 mb 0.00 in0.0 mm 0.00 in0.0 mm 0.00 in0.0 mm
02:15 AM 51.1°F10.6°C 48.9°F9.4°C 92% 0.2 mph SE0.3 kmh SE 0.4 mph0.6 kmh 29.18 in988.1 mb 0.00 in0.0 mm 0.00 in0.0 mm 0.00 in0.0 mm
02:10 AM 51.2°F10.7°C 48.7°F9.3°C 91% Calm Calm -- 29.19 in988.5 mb 0.00 in0.0 mm 0.00 in0.0 mm 0.00 in0.0 mm
02:05 AM 51.3°F10.7°C 49.1°F9.5°C 92% 0.9 mph ENE1.4 kmh ENE 1.7 mph2.7 kmh 29.19 in988.5 mb 0.00 in0.0 mm 0.00 in0.0 mm 0.00 in0.0 mm
02:00 AM 51.5°F10.8°C 49.0°F9.4°C 91% 2.2 mph ENE3.5 kmh ENE 2.8 mph4.5 kmh 29.19 in988.5 mb 0.00 in0.0 mm 0.00 in0.0 mm 0.00 in0.0 mm
01:55 AM 51.7°F10.9°C 49.2°F9.6°C 91% 2.6 mph ENE4.2 kmh ENE 3.3 mph5.3 kmh 29.19 in988.5 mb 0.00 in0.0 mm 0.00 in0.0 mm 0.00 in0.0 mm
01:50 AM 52.1°F11.2°C 49.6°F9.8°C 91% 3.1 mph ENE5.0 kmh ENE 4.1 mph6.6 kmh 29.19 in988.5 mb 0.00 in0.0 mm 0.00 in0.0 mm 0.00 in0.0 mm
01:45 AM 52.5°F11.4°C 49.9°F9.9°C 91% 2.2 mph ESE3.5 kmh ESE 2.8 mph4.5 kmh 29.19 in988.5 mb 0.00 in0.0 mm 0.00 in0.0 mm 0.00 in0.0 mm
01:40 AM 52.7°F11.5°C 50.1°F10.1°C 91% 1.7 mph ENE2.7 kmh ENE 2.1 mph3.4 kmh 29.19 in988.5 mb 0.00 in0.0 mm 0.00 in0.0 mm 0.00 in0.0 mm
01:35 AM 52.7°F11.5°C 50.1°F10.1°C 91% Calm Calm 0.3 mph0.5 kmh 29.19 in988.5 mb 0.00 in0.0 mm 0.00 in0.0 mm 0.00 in0.0 mm
01:30 AM 52.8°F11.6°C 50.5°F10.3°C 92% 1.7 mph ENE2.7 kmh ENE 2.3 mph3.7 kmh 29.19 in988.5 mb 0.00 in0.0 mm 0.00 in0.0 mm 0.00 in0.0 mm
01:25 AM 52.7°F11.5°C 50.1°F10.1°C 91% 3.1 mph E5.0 kmh E 4.3 mph6.9 kmh 29.19 in988.5 mb 0.00 in0.0 mm 0.00 in0.0 mm 0.00 in0.0 mm
01:20 AM 52.7°F11.5°C 50.1°F10.1°C 91% Calm Calm -- 29.19 in988.5 mb 0.00 in0.0 mm 0.00 in0.0 mm 0.00 in0.0 mm
01:15 AM 52.7°F11.5°C 50.1°F10.1°C 91% Calm Calm -- 29.19 in988.5 mb 0.00 in0.0 mm 0.00 in0.0 mm 0.00 in0.0 mm
01:10 AM 52.7°F11.5°C 50.4°F10.2°C 92% 1.3 mph NNE2.1 kmh NNE 2.3 mph3.7 kmh 29.19 in988.5 mb 0.00 in0.0 mm 0.00 in0.0 mm 0.00 in0.0 mm
01:05 AM 52.7°F11.5°C 50.1°F10.1°C 91% 1.6 mph N2.6 kmh N 2.0 mph3.2 kmh 29.19 in988.5 mb 0.00 in0.0 mm 0.00 in0.0 mm 0.00 in0.0 mm
01:00 AM 52.8°F11.6°C 50.2°F10.1°C 91% 0.1 mph NNW0.2 kmh NNW 0.4 mph0.6 kmh 29.19 in988.5 mb 0.00 in0.0 mm 0.00 in0.0 mm 0.00 in0.0 mm
12:55 AM 52.8°F11.6°C 50.2°F10.1°C 91% Calm Calm -- 29.19 in988.5 mb 0.00 in0.0 mm 0.00 in0.0 mm 0.00 in0.0 mm
12:50 AM 53.0°F11.7°C 50.1°F10.1°C 90% Calm Calm -- 29.19 in988.5 mb 0.00 in0.0 mm 0.00 in0.0 mm 0.00 in0.0 mm
12:45 AM 53.0°F11.7°C 49.8°F9.9°C 89% Calm Calm -- 29.19 in988.5 mb 0.00 in0.0 mm 0.00 in0.0 mm 0.00 in0.0 mm
12:40 AM 53.2°F11.8°C 50.0°F10.0°C 89% Calm Calm -- 29.19 in988.5 mb 0.00 in0.0 mm 0.00 in0.0 mm 0.00 in0.0 mm
12:35 AM 53.2°F11.8°C 49.7°F9.8°C 88% Calm Calm -- 29.19 in988.5 mb 0.00 in0.0 mm 0.00 in0.0 mm 0.00 in0.0 mm
12:30 AM 53.3°F11.8°C 50.1°F10.1°C 89% Calm Calm -- 29.19 in988.5 mb 0.00 in0.0 mm 0.00 in0.0 mm 0.00 in0.0 mm
12:25 AM 53.6°F12.0°C 50.1°F10.1°C 88% Calm Calm -- 29.19 in988.5 mb 0.00 in0.0 mm 0.00 in0.0 mm 0.00 in0.0 mm
12:20 AM 53.8°F12.1°C 50.3°F10.2°C 88% Calm Calm -- 29.19 in988.5 mb 0.00 in0.0 mm 0.00 in0.0 mm 0.00 in0.0 mm
12:15 AM 54.1°F12.3°C 50.3°F10.2°C 87% Calm Calm -- 29.19 in988.5 mb 0.00 in0.0 mm 0.00 in0.0 mm 0.00 in0.0 mm
12:10 AM 54.5°F12.5°C 50.1°F10.1°C 85% 0.7 mph WSW1.1 kmh WSW 1.7 mph2.7 kmh 29.19 in988.5 mb 0.00 in0.0 mm 0.00 in0.0 mm 0.00 in0.0 mm
12:05 AM 54.8°F12.7°C 49.7°F9.8°C 83% 0.1 mph WSW0.2 kmh WSW 0.3 mph0.5 kmh 29.19 in988.5 mb 0.00 in0.0 mm 0.00 in0.0 mm 0.00 in0.0 mm